MMTG/TGZ METAR and TAF weather

Enter ICAO airport designator
Station Type Date Time Source
MMTG METAR 2019/12/07 14:50 UTC NOAA

MMTG 071450Z 00000KT 7SM SCT300 24/18 A3019 RMK SLP191 52015 916 8/001 ST OVR MT HZY


Station Type Date Time Source
MMTG Decoded METAR 2019/12/07 14:50 UTC NOAA

Tuxtla Gutierrez, Chis., Mexico (MMTG) 16-45N 093-07W
Dec 07, 2019 - 09:50 AM EST / 2019.12.07 1450 UTC
Wind: Calm:0
Visibility: 7 mile(s):0
Sky conditions: partly cloudy
Temperature: 75 F (24 C)
Dew Point: 64 F (18 C)
Relative Humidity: 69%
Pressure (altimeter): 30.19 in. Hg (1022 hPa)
Pressure tendency: 0.04 inches (1.5 hPa) higher than three hours ago
ob: MMTG 071450Z 00000KT 7SM SCT300 24/18 A3019 RMK SLP191 52015 916 8/001 ST OVR MT HZY
cycle: 15

Station Type Date Time Source
MMTG TAF 2019/12/07 06:29 UTC NOAA

TAF MMTG 070422Z 0706/0806 33005KT P6SM SCT030
TEMPO 0710/0714 3SM BR HZ
FM071700 33010KT P6SM SCT030
FM080300 30005KT P6SM SCT020

Example: see airport list